createdAt,value
2023-02-24T00:02:15.025Z,2.00
2023-02-24T00:04:42.662Z,1.25
2023-02-24T00:07:12.662Z,0.65
2023-02-24T00:09:40.482Z,1.20
2023-02-24T00:12:12.954Z,1.77
2023-02-24T00:14:44.468Z,2.03
2023-02-24T00:17:15.582Z,1.10
2023-02-24T00:19:43.091Z,0.20
2023-02-24T00:22:10.710Z,1.30
2023-02-24T00:24:38.140Z,1.67
2023-02-24T00:27:13.031Z,2.00
2023-02-24T00:29:41.969Z,0.20
2023-02-24T00:32:12.862Z,1.00
2023-02-24T00:34:42.105Z,0.60
2023-02-24T00:37:09.545Z,0.85
2023-02-24T00:39:41.960Z,0.68
2023-02-24T00:42:11.635Z,0.35
2023-02-24T00:44:46.218Z,0.13
2023-02-24T00:47:17.011Z,0.75
2023-02-24T00:49:44.918Z,0.30
2023-02-24T00:52:15.515Z,0.15
2023-02-24T00:54:46.011Z,0.60
2023-02-24T00:57:14.300Z,0.20
2023-02-24T00:59:47.350Z,0.20
2023-02-24T01:02:15.363Z,0.25
2023-02-24T01:04:46.530Z,0.40
2023-02-24T01:07:16.516Z,0.73
2023-02-24T01:09:46.588Z,0.40
2023-02-24T01:12:33.198Z,0.28
2023-02-24T01:15:05.083Z,0.80
2023-02-24T01:17:36.580Z,0.10
2023-02-24T01:20:16.082Z,0.15
2023-02-24T01:22:45.418Z,0.50
2023-02-24T01:25:13.117Z,0.65
2023-02-24T01:27:42.220Z,1.17
2023-02-24T01:30:15.883Z,0.57
2023-02-24T01:32:45.063Z,0.40
2023-02-24T01:35:12.445Z,0.75
2023-02-24T01:37:41.619Z,0.55
2023-02-24T01:40:21.596Z,0.68
2023-02-24T01:42:49.965Z,0.60
2023-02-24T01:45:21.922Z,1.38
2023-02-24T01:47:50.322Z,0.38
2023-02-24T01:50:21.873Z,0.82
2023-02-24T01:52:52.447Z,0.17
2023-02-24T01:55:24.530Z,0.47
2023-02-24T01:57:53.950Z,0.70
2023-02-24T02:03:24.522Z,0.40
2023-02-24T02:05:54.308Z,0.95
2023-02-24T02:08:23.719Z,1.38
2023-02-24T02:13:26.972Z,0.52
2023-02-24T02:15:57.622Z,0.60
2023-02-24T02:18:36.510Z,0.77
2023-02-24T02:21:29.354Z,0.75
2023-02-24T02:24:22.218Z,0.57
2023-02-24T02:27:06.788Z,0.57
2023-02-24T02:29:46.619Z,0.45
2023-02-24T02:32:52.995Z,0.40
2023-02-24T02:35:38.000Z,0.63
2023-02-24T02:38:26.226Z,0.38
2023-02-24T02:41:07.554Z,1.05
2023-02-24T02:43:55.150Z,0.65
2023-02-24T02:46:46.284Z,0.75
2023-02-24T02:49:21.871Z,0.47
2023-02-24T02:54:45.490Z,0.50
2023-02-24T02:57:30.223Z,0.40
2023-02-24T03:00:10.301Z,1.38
2023-02-24T03:02:42.913Z,0.70
2023-02-24T03:05:11.776Z,1.13
2023-02-24T03:07:45.287Z,0.85
2023-02-24T03:10:21.061Z,0.20
2023-02-24T03:12:52.500Z,0.40
2023-02-24T03:15:22.149Z,0.28
2023-02-24T03:18:01.514Z,0.15
2023-02-24T03:20:36.060Z,0.40
2023-02-24T03:23:09.163Z,0.60
2023-02-24T03:25:50.371Z,0.52
2023-02-24T03:28:42.893Z,1.00
2023-02-24T03:31:23.373Z,1.27
2023-02-24T03:34:05.520Z,0.47
2023-02-24T03:36:33.672Z,0.55
2023-02-24T03:39:02.616Z,1.00
2023-02-24T03:41:56.276Z,0.65
2023-02-24T03:44:25.869Z,0.55
2023-02-24T03:46:55.757Z,0.77
2023-02-24T03:49:25.348Z,0.82
2023-02-24T03:52:12.531Z,0.30
2023-02-24T03:55:03.096Z,0.70
2023-02-24T03:57:59.792Z,0.32
2023-02-24T04:00:58.426Z,0.65
2023-02-24T04:04:00.338Z,0.73
2023-02-24T04:06:57.894Z,0.82
2023-02-24T04:09:40.349Z,0.32
2023-02-24T04:12:19.865Z,0.35
2023-02-24T04:15:10.264Z,0.70
2023-02-24T04:17:54.663Z,0.77
2023-02-24T04:20:29.420Z,0.38
2023-02-24T04:23:22.324Z,1.60
2023-02-24T04:25:52.317Z,0.77
2023-02-24T04:28:26.217Z,0.70
2023-02-24T04:33:25.855Z,1.30
2023-02-24T04:35:54.270Z,1.50
2023-02-24T04:38:23.730Z,0.82
2023-02-24T04:40:51.480Z,1.40
2023-02-24T04:43:19.257Z,0.70
2023-02-24T04:45:46.786Z,0.93
2023-02-24T04:48:15.468Z,0.90
2023-02-24T04:50:44.997Z,1.20
2023-02-24T04:53:15.313Z,1.05
2023-02-24T04:55:50.070Z,1.00
2023-02-24T04:58:27.867Z,1.73
2023-02-24T05:00:56.202Z,0.80
2023-02-24T05:03:28.160Z,1.35
2023-02-24T05:06:01.853Z,0.98
2023-02-24T05:08:31.551Z,0.73
2023-02-24T05:11:03.845Z,0.90
2023-02-24T05:13:32.410Z,0.90
2023-02-24T05:16:08.235Z,0.30
2023-02-24T05:18:38.550Z,1.02
2023-02-24T05:21:27.525Z,1.00
2023-02-24T05:23:55.917Z,0.73
2023-02-24T05:26:25.998Z,1.05
2023-02-24T05:28:56.331Z,0.82
2023-02-24T05:31:28.000Z,0.25
2023-02-24T05:34:03.809Z,1.17
2023-02-24T05:39:07.604Z,0.95
2023-02-24T05:41:38.593Z,1.38
2023-02-24T05:44:10.806Z,0.20
2023-02-24T05:46:44.514Z,0.52
2023-02-24T05:49:23.202Z,0.75
2023-02-24T05:51:55.440Z,0.60
2023-02-24T05:54:31.321Z,0.70
2023-02-24T05:57:04.967Z,0.80
2023-02-24T05:59:33.531Z,0.40
2023-02-24T06:02:07.639Z,0.75
2023-02-24T06:04:40.091Z,0.25
2023-02-24T06:07:18.850Z,0.50
2023-02-24T06:09:49.973Z,0.40
2023-02-24T06:12:18.349Z,1.13
2023-02-24T06:14:45.632Z,0.52
2023-02-24T06:17:15.251Z,0.40
2023-02-24T06:19:43.615Z,1.48
2023-02-24T06:22:15.525Z,1.05
2023-02-24T06:25:11.935Z,0.50
2023-02-24T06:27:39.162Z,0.52
2023-02-24T06:30:10.295Z,0.60
2023-02-24T06:32:38.175Z,1.23
2023-02-24T06:35:15.136Z,0.77
2023-02-24T06:37:44.012Z,0.82
2023-02-24T06:40:17.778Z,0.50
2023-02-24T06:42:49.369Z,0.93
2023-02-24T06:46:19.900Z,0.70
2023-02-24T06:49:00.213Z,0.60
2023-02-24T06:51:30.536Z,0.77
2023-02-24T06:54:19.121Z,0.40
2023-02-24T06:56:47.752Z,0.98
2023-02-24T07:00:13.504Z,1.08
2023-02-24T07:03:22.496Z,0.80
2023-02-24T07:06:20.511Z,0.50
2023-02-24T07:08:53.463Z,0.55
2023-02-24T07:11:27.692Z,0.30
2023-02-24T07:14:01.051Z,1.05
2023-02-24T07:16:29.045Z,0.65
2023-02-24T07:19:29.677Z,1.00
2023-02-24T07:22:01.914Z,1.25
2023-02-24T07:25:10.374Z,0.65
2023-02-24T07:27:40.582Z,0.63
2023-02-24T07:30:20.042Z,0.40
2023-02-24T07:32:52.115Z,0.90
2023-02-24T07:35:35.361Z,0.40
2023-02-24T07:38:26.414Z,0.10
2023-02-24T07:45:15.380Z,0.90
2023-02-24T07:47:42.830Z,0.73
2023-02-24T07:50:41.962Z,0.57
2023-02-24T07:53:10.453Z,0.73
2023-02-24T07:55:37.733Z,0.82
2023-02-24T07:58:05.909Z,0.30
2023-02-24T08:00:50.003Z,0.47
2023-02-24T08:03:17.264Z,1.15
2023-02-24T08:05:45.134Z,0.80
2023-02-24T08:08:21.574Z,0.30
2023-02-24T08:14:32.670Z,0.73
2023-02-24T08:17:37.417Z,0.30
2023-02-24T08:20:25.233Z,0.20
2023-02-24T08:23:14.913Z,0.17
2023-02-24T08:26:16.530Z,1.00
2023-02-24T08:32:43.481Z,0.30
2023-02-24T08:35:17.065Z,0.57
2023-02-24T08:37:48.370Z,1.58
2023-02-24T08:40:38.719Z,2.03
2023-02-24T08:43:19.334Z,1.85
2023-02-24T08:46:03.517Z,1.60
2023-02-24T08:48:37.869Z,2.83
2023-02-24T08:51:24.451Z,1.55
2023-02-24T08:53:54.221Z,1.23
2023-02-24T08:56:29.470Z,0.73
2023-02-24T09:01:34.901Z,1.73
2023-02-24T09:04:11.042Z,1.30
2023-02-24T09:06:43.971Z,2.75
2023-02-24T09:09:23.155Z,4.95
2023-02-24T09:11:59.772Z,1.70
2023-02-24T09:14:36.268Z,6.90
2023-02-24T09:17:06.574Z,2.95
2023-02-24T09:19:51.684Z,2.00
2023-02-24T09:22:57.143Z,1.48
2023-02-24T09:25:40.297Z,0.45
2023-02-24T09:28:19.577Z,0.40
2023-02-24T09:30:56.366Z,1.02
2023-02-24T09:33:25.286Z,0.80
2023-02-24T09:36:10.306Z,0.45
2023-02-24T09:39:01.662Z,0.57
2023-02-24T09:41:54.418Z,0.70
2023-02-24T09:44:36.223Z,0.13
2023-02-24T09:47:40.563Z,0.57
2023-02-24T09:50:46.787Z,9.75
2023-02-24T09:53:17.010Z,3.17
2023-02-24T09:56:03.901Z,0.30
2023-02-24T09:58:59.022Z,0.35
2023-02-24T10:01:33.335Z,0.57
2023-02-24T10:04:40.563Z,0.20
2023-02-24T10:07:14.154Z,0.32
2023-02-24T10:09:51.963Z,0.30
2023-02-24T10:12:24.057Z,0.10
2023-02-24T10:15:18.647Z,0.20
2023-02-24T10:17:57.018Z,0.75
2023-02-24T10:20:45.614Z,1.00
2023-02-24T10:23:32.785Z,0.10
2023-02-24T10:26:22.001Z,1.92
2023-02-24T10:28:58.777Z,2.83
2023-02-24T10:31:47.828Z,1.90
2023-02-24T10:34:26.288Z,0.70
2023-02-24T10:36:57.431Z,0.80
2023-02-24T10:39:26.123Z,0.25
2023-02-24T10:41:59.354Z,0.50
2023-02-24T10:44:38.934Z,0.88
2023-02-24T10:47:14.172Z,0.10
2023-02-24T10:49:59.024Z,0.22
2023-02-24T10:52:57.739Z,0.45
2023-02-24T10:55:53.561Z,0.22
2023-02-24T10:58:28.390Z,0.40
2023-02-24T11:01:11.883Z,0.38
2023-02-24T11:03:46.387Z,0.47
2023-02-24T11:06:52.264Z,0.57
2023-02-24T11:09:28.534Z,0.32
2023-02-24T11:12:31.573Z,0.88
2023-02-24T11:15:22.902Z,0.17
2023-02-24T11:17:56.981Z,0.20
2023-02-24T11:20:48.429Z,0.30
2023-02-24T11:23:27.247Z,0.40
2023-02-24T11:26:17.708Z,0.38
2023-02-24T11:29:11.972Z,0.30
2023-02-24T11:32:16.898Z,0.50
2023-02-24T11:34:51.020Z,0.50
2023-02-24T11:37:37.899Z,1.10
2023-02-24T11:40:19.778Z,0.30
2023-02-24T11:45:46.910Z,0.35
2023-02-24T11:48:26.451Z,0.50
2023-02-24T11:51:04.883Z,0.45
2023-02-24T11:53:47.754Z,0.50
2023-02-24T11:56:28.217Z,0.10
2023-02-24T11:59:03.696Z,0.65
2023-02-24T12:01:52.720Z,0.32
2023-02-24T12:04:26.479Z,0.70
2023-02-24T12:07:18.246Z,0.65
2023-02-24T12:09:54.979Z,0.50
2023-02-24T12:12:38.847Z,1.05
2023-02-24T12:15:18.693Z,0.98
2023-02-24T12:18:14.947Z,0.25
2023-02-24T12:21:00.394Z,0.30
2023-02-24T12:23:40.900Z,0.85
2023-02-24T12:26:28.377Z,0.40
2023-02-24T12:29:18.548Z,0.40
2023-02-24T12:32:15.809Z,0.70
2023-02-24T12:34:58.742Z,0.40
2023-02-24T12:37:51.080Z,0.50
2023-02-24T12:40:42.062Z,0.88
2023-02-24T12:43:19.828Z,0.22
2023-02-24T12:46:05.369Z,0.22
2023-02-24T12:48:51.569Z,1.20
2023-02-24T12:51:50.975Z,0.80
2023-02-24T12:54:50.326Z,0.65
2023-02-24T12:57:41.405Z,0.63
2023-02-24T13:00:35.407Z,0.60
2023-02-24T13:03:25.617Z,0.43
2023-02-24T13:06:10.509Z,0.40
2023-02-24T13:09:18.306Z,0.32
2023-02-24T13:12:06.053Z,0.57
2023-02-24T13:14:36.917Z,0.55
2023-02-24T13:17:21.186Z,1.33
2023-02-24T13:19:52.116Z,0.77
2023-02-24T13:22:24.673Z,0.57
2023-02-24T13:24:54.857Z,0.50
2023-02-24T13:27:35.127Z,0.28
2023-02-24T13:30:11.312Z,1.50
2023-02-24T13:32:40.783Z,0.70
2023-02-24T13:35:15.155Z,1.25
2023-02-24T13:37:46.959Z,0.93
2023-02-24T13:40:23.034Z,1.33
2023-02-24T13:42:56.303Z,1.10
2023-02-24T13:45:32.273Z,0.77
2023-02-24T13:48:08.288Z,0.73
2023-02-24T13:51:03.367Z,0.68
2023-02-24T13:53:35.510Z,0.68
2023-02-24T13:56:27.935Z,0.50
2023-02-24T13:59:30.295Z,0.30
2023-02-24T14:02:19.575Z,1.02
2023-02-24T14:04:56.098Z,0.55
2023-02-24T14:07:30.113Z,0.45
2023-02-24T14:10:05.175Z,0.40
2023-02-24T14:12:37.727Z,0.45
2023-02-24T14:15:05.467Z,0.20
2023-02-24T14:17:35.877Z,0.47
2023-02-24T14:20:23.789Z,0.52
2023-02-24T14:25:24.246Z,0.20
2023-02-24T14:27:54.389Z,0.30
2023-02-24T14:30:32.177Z,0.13
2023-02-24T14:33:00.315Z,0.45
2023-02-24T14:35:42.145Z,0.50
2023-02-24T14:38:30.999Z,0.45
2023-02-24T14:41:01.544Z,0.40
2023-02-24T14:43:29.611Z,0.50
2023-02-24T14:46:00.195Z,0.52
2023-02-24T14:48:29.780Z,1.52
2023-02-24T14:51:10.069Z,1.30
2023-02-24T14:53:48.586Z,1.15
2023-02-24T14:56:17.164Z,0.40
2023-02-24T14:59:01.300Z,1.08
2023-02-24T15:01:43.332Z,1.10
2023-02-24T15:04:25.560Z,0.93
2023-02-24T15:06:53.031Z,0.60
2023-02-24T15:09:23.772Z,0.50
2023-02-24T15:11:53.308Z,0.40
2023-02-24T15:14:31.613Z,0.95
2023-02-24T15:17:09.655Z,0.73
2023-02-24T15:19:44.017Z,0.63
2023-02-24T15:22:33.139Z,0.45
2023-02-24T15:25:28.076Z,0.60
2023-02-24T15:28:03.577Z,0.43
2023-02-24T15:30:35.374Z,0.30
2023-02-24T15:33:04.170Z,0.30
2023-02-24T15:35:33.237Z,0.50
2023-02-24T15:38:02.108Z,0.43
2023-02-24T15:40:30.115Z,0.70
2023-02-24T15:43:09.382Z,1.00
2023-02-24T15:45:38.947Z,0.50
2023-02-24T15:48:26.828Z,0.40
2023-02-24T15:50:58.377Z,0.50
2023-02-24T15:53:25.800Z,0.93
2023-02-24T15:55:53.069Z,0.40
2023-02-24T15:58:22.500Z,0.25
2023-02-24T16:03:19.555Z,0.22
2023-02-24T16:05:46.773Z,0.50
2023-02-24T16:08:18.184Z,0.40
2023-02-24T16:10:46.187Z,0.32
2023-02-24T16:13:23.849Z,0.95
2023-02-24T16:15:54.691Z,0.68
2023-02-24T16:18:25.262Z,2.72
2023-02-24T16:20:56.520Z,0.73
2023-02-24T16:23:25.977Z,0.43
2023-02-24T16:28:25.378Z,0.80
2023-02-24T16:30:52.835Z,0.80
2023-02-24T16:33:22.647Z,0.77
2023-02-24T16:35:53.277Z,0.93
2023-02-24T16:38:22.028Z,1.10
2023-02-24T16:40:49.836Z,1.10
2023-02-24T16:43:17.197Z,0.70
2023-02-24T16:45:45.728Z,0.82
2023-02-24T16:48:20.584Z,0.93
2023-02-24T16:50:48.198Z,1.00
2023-02-24T16:53:19.581Z,1.25
2023-02-24T16:55:47.159Z,1.17
2023-02-24T16:58:15.266Z,0.82
2023-02-24T17:00:47.544Z,1.13
2023-02-24T17:03:31.284Z,0.90
2023-02-24T17:05:58.478Z,1.40
2023-02-24T17:08:25.849Z,1.05
2023-02-24T17:10:53.368Z,1.60
2023-02-24T17:13:22.207Z,1.10
2023-02-24T17:15:56.964Z,1.02
2023-02-24T17:18:25.378Z,1.33
2023-02-24T17:20:53.466Z,0.95
2023-02-24T17:23:20.849Z,1.30
2023-02-24T17:25:59.609Z,1.42
2023-02-24T17:28:27.592Z,1.15
2023-02-24T17:30:54.922Z,1.85
2023-02-24T17:33:22.361Z,1.42
2023-02-24T17:35:49.598Z,1.70
2023-02-24T17:38:19.400Z,1.95
2023-02-24T17:40:47.244Z,1.52
2023-02-24T17:43:14.598Z,1.40
2023-02-24T17:45:44.856Z,1.38
2023-02-24T17:48:13.835Z,2.00
2023-02-24T17:50:42.215Z,2.90
2023-02-24T17:53:09.633Z,2.95
2023-02-24T17:55:36.883Z,2.40
2023-02-24T17:58:06.156Z,2.83
2023-02-24T18:00:33.666Z,1.95
2023-02-24T18:03:03.291Z,1.63
2023-02-24T18:05:30.750Z,1.58
2023-02-24T18:07:58.718Z,1.23
2023-02-24T18:10:27.246Z,2.13
2023-02-24T18:12:54.697Z,2.35
2023-02-24T18:15:22.246Z,2.03
2023-02-24T18:17:49.551Z,1.92
2023-02-24T18:20:16.762Z,1.95
2023-02-24T18:22:43.951Z,1.75
2023-02-24T18:25:11.274Z,1.10
2023-02-24T18:27:38.614Z,1.50
2023-02-24T18:30:06.992Z,1.17
2023-02-24T18:32:34.752Z,1.13
2023-02-24T18:35:02.077Z,2.88
2023-02-24T18:37:29.550Z,1.70
2023-02-24T18:39:56.899Z,2.95
2023-02-24T18:42:24.167Z,2.03
2023-02-24T18:44:51.371Z,2.08
2023-02-24T18:47:18.601Z,1.90
2023-02-24T18:49:45.829Z,2.85
2023-02-24T18:52:13.312Z,1.65
2023-02-24T18:54:40.508Z,2.58
2023-02-24T18:57:07.771Z,1.98
2023-02-24T18:59:35.519Z,3.03
2023-02-24T19:02:03.170Z,1.40
2023-02-24T19:04:30.582Z,2.17
2023-02-24T19:06:57.864Z,1.60
2023-02-24T19:09:25.059Z,1.98
2023-02-24T19:11:54.078Z,2.45
2023-02-24T19:14:22.417Z,2.45
2023-02-24T19:16:49.675Z,3.90
2023-02-24T19:19:17.375Z,1.70
2023-02-24T19:21:49.422Z,2.25
2023-02-24T19:24:17.794Z,3.20
2023-02-24T19:26:47.414Z,3.53
2023-02-24T19:29:14.837Z,3.92
2023-02-24T19:31:42.150Z,2.05
2023-02-24T19:34:13.575Z,2.78
2023-02-24T19:36:41.181Z,2.47
2023-02-24T19:39:15.784Z,4.35
2023-02-24T19:41:43.600Z,3.35
2023-02-24T19:44:11.044Z,3.50
2023-02-24T19:46:39.060Z,2.47
2023-02-24T19:49:06.634Z,3.38
2023-02-24T19:51:35.188Z,2.72
2023-02-24T19:54:05.728Z,3.88
2023-02-24T19:56:37.313Z,1.95
2023-02-24T19:59:07.248Z,2.78
2023-02-24T20:01:34.628Z,3.92
2023-02-24T20:04:03.780Z,3.45
2023-02-24T20:06:37.498Z,2.85
2023-02-24T20:09:11.508Z,2.40
2023-02-24T20:11:40.444Z,3.88
2023-02-24T20:14:09.132Z,3.33
2023-02-24T20:16:43.783Z,1.98
2023-02-24T20:19:12.892Z,1.88
2023-02-24T20:21:41.099Z,2.53
2023-02-24T20:24:13.766Z,2.78
2023-02-24T20:26:46.145Z,2.78
2023-02-24T20:29:16.202Z,2.90
2023-02-24T20:31:43.698Z,2.90
2023-02-24T20:34:11.064Z,2.47
2023-02-24T20:36:38.266Z,4.25
2023-02-24T20:39:08.450Z,2.70
2023-02-24T20:41:36.826Z,3.20
2023-02-24T20:44:04.412Z,3.15
2023-02-24T20:46:32.627Z,3.33
2023-02-24T20:49:03.038Z,2.75
2023-02-24T20:51:31.534Z,3.50
2023-02-24T20:53:59.614Z,2.42
2023-02-24T20:56:29.271Z,3.30
2023-02-24T20:59:05.696Z,2.92
2023-02-24T21:01:34.608Z,1.85
2023-02-24T21:04:02.633Z,1.73
2023-02-24T21:06:30.477Z,1.80
2023-02-24T21:08:58.336Z,1.25
2023-02-24T21:11:26.145Z,1.77
2023-02-24T21:13:53.651Z,1.17
2023-02-24T21:16:21.578Z,1.20
2023-02-24T21:18:50.472Z,0.73
2023-02-24T21:21:26.341Z,0.98
2023-02-24T21:23:53.983Z,0.90
2023-02-24T21:26:21.541Z,1.27
2023-02-24T21:28:56.888Z,1.13
2023-02-24T21:33:53.639Z,0.80
2023-02-24T21:36:23.676Z,0.60
2023-02-24T21:38:52.896Z,0.85
2023-02-24T21:41:20.646Z,0.88
2023-02-24T21:43:52.437Z,0.98
2023-02-24T21:46:19.722Z,0.22
2023-02-24T21:48:47.069Z,1.40
2023-02-24T21:51:14.516Z,0.90
2023-02-24T21:53:43.772Z,0.60
2023-02-24T21:56:18.912Z,1.35
2023-02-24T21:59:01.137Z,1.42
2023-02-24T22:01:40.823Z,1.23
2023-02-24T22:04:10.832Z,1.75
2023-02-24T22:06:40.170Z,0.85
2023-02-24T22:09:10.000Z,1.55
2023-02-24T22:11:40.663Z,1.48
2023-02-24T22:14:10.432Z,1.05
2023-02-24T22:16:38.197Z,1.63
2023-02-24T22:19:06.355Z,1.15
2023-02-24T22:21:33.635Z,0.75
2023-02-24T22:24:03.247Z,1.15
2023-02-24T22:26:32.077Z,0.90
2023-02-24T22:29:00.585Z,0.80
2023-02-24T22:31:30.838Z,2.25
2023-02-24T22:33:58.776Z,1.48
2023-02-24T22:36:29.685Z,1.20
2023-02-24T22:38:58.512Z,0.82
2023-02-24T22:41:28.555Z,1.23
2023-02-24T22:43:55.807Z,1.00
2023-02-24T22:46:30.042Z,1.25
2023-02-24T22:48:57.625Z,1.45
2023-02-24T22:51:25.310Z,0.90
2023-02-24T22:53:53.605Z,0.73
2023-02-24T22:56:24.374Z,0.60
2023-02-24T22:58:51.771Z,0.57
2023-02-24T23:01:23.033Z,2.05
2023-02-24T23:03:50.712Z,0.85
2023-02-24T23:06:21.892Z,0.68
2023-02-24T23:08:51.994Z,1.15
2023-02-24T23:11:28.606Z,0.90
2023-02-24T23:13:57.555Z,0.30
2023-02-24T23:16:27.654Z,0.98
2023-02-24T23:19:00.967Z,1.08
2023-02-24T23:21:34.315Z,0.77
2023-02-24T23:24:02.066Z,0.77
2023-02-24T23:26:30.395Z,0.55
2023-02-24T23:28:57.809Z,0.68
2023-02-24T23:31:25.710Z,0.47
2023-02-24T23:33:54.727Z,0.63
2023-02-24T23:36:22.970Z,0.40
2023-02-24T23:38:50.745Z,1.02
2023-02-24T23:41:18.043Z,1.02
2023-02-24T23:43:45.313Z,1.23
2023-02-24T23:46:13.701Z,0.85
2023-02-24T23:48:41.312Z,1.20
2023-02-24T23:51:12.836Z,0.73
2023-02-24T23:53:42.904Z,0.43
2023-02-24T23:56:26.595Z,0.65
2023-02-24T23:58:58.911Z,0.28
